sensor_id;sensor_type;location;lat;lon;timestamp;pressure;altitude;pressure_sealevel;temperature;humidity
15272;BME280;7737;51.578;7.268;2023-04-01T00:01:51;98804.59;;;10.23;100.00
15272;BME280;7737;51.578;7.268;2023-04-01T00:04:17;98805.44;;;10.24;100.00
15272;BME280;7737;51.578;7.268;2023-04-01T00:06:44;98803.38;;;10.27;100.00
15272;BME280;7737;51.578;7.268;2023-04-01T00:09:10;98805.31;;;10.25;100.00
15272;BME280;7737;51.578;7.268;2023-04-01T00:11:36;98810.88;;;10.22;100.00
15272;BME280;7737;51.578;7.268;2023-04-01T00:14:03;98809.19;;;10.21;100.00
15272;BME280;7737;51.578;7.268;2023-04-01T00:16:31;98818.25;;;10.19;100.00
15272;BME280;7737;51.578;7.268;2023-04-01T00:18:58;98814.13;;;10.15;100.00
15272;BME280;7737;51.578;7.268;2023-04-01T00:21:24;98816.78;;;10.15;100.00
15272;BME280;7737;51.578;7.268;2023-04-01T00:23:51;98820.72;;;10.09;100.00
15272;BME280;7737;51.578;7.268;2023-04-01T00:26:18;98818.78;;;10.11;100.00
15272;BME280;7737;51.578;7.268;2023-04-01T00:28:46;98810.09;;;10.09;100.00
15272;BME280;7737;51.578;7.268;2023-04-01T00:31:13;98811.19;;;10.07;100.00
15272;BME280;7737;51.578;7.268;2023-04-01T00:33:42;98812.03;;;10.07;100.00
15272;BME280;7737;51.578;7.268;2023-04-01T00:36:10;98813.84;;;10.07;100.00
15272;BME280;7737;51.578;7.268;2023-04-01T00:38:37;98809.25;;;10.09;100.00
15272;BME280;7737;51.578;7.268;2023-04-01T00:41:04;98810.34;;;10.06;100.00
15272;BME280;7737;51.578;7.268;2023-04-01T00:43:31;98808.44;;;10.08;100.00
15272;BME280;7737;51.578;7.268;2023-04-01T00:45:58;98800.56;;;10.07;100.00
15272;BME280;7737;51.578;7.268;2023-04-01T00:48:26;98805.28;;;10.03;100.00
15272;BME280;7737;51.578;7.268;2023-04-01T00:50:58;98807.19;;;10.01;100.00
15272;BME280;7737;51.578;7.268;2023-04-01T00:53:26;98810.84;;;10.00;100.00
15272;BME280;7737;51.578;7.268;2023-04-01T00:55:58;98806.13;;;10.04;100.00
15272;BME280;7737;51.578;7.268;2023-04-01T00:58:27;98808.78;;;10.04;100.00
15272;BME280;7737;51.578;7.268;2023-04-01T01:00:57;98810.84;;;10.00;100.00
15272;BME280;7737;51.578;7.268;2023-04-01T01:03:25;98805.53;;;10.00;100.00
15272;BME280;7737;51.578;7.268;2023-04-01T01:06:17;98809.13;;;9.99;100.00
15272;BME280;7737;51.578;7.268;2023-04-01T01:09:21;98809.13;;;9.99;100.00
15272;BME280;7737;51.578;7.268;2023-04-01T01:11:55;98810.00;;;10.00;100.00
15272;BME280;7737;51.578;7.268;2023-04-01T01:14:34;98799.47;;;9.98;100.00
15272;BME280;7737;51.578;7.268;2023-04-01T01:17:08;98803.81;;;9.99;100.00
15272;BME280;7737;51.578;7.268;2023-04-01T01:19:57;98800.44;;;9.97;100.00
15272;BME280;7737;51.578;7.268;2023-04-01T01:22:43;98802.25;;;9.97;100.00
15272;BME280;7737;51.578;7.268;2023-04-01T01:25:28;98800.44;;;9.97;100.00
15272;BME280;7737;51.578;7.268;2023-04-01T01:28:02;98798.75;;;9.96;100.00
15272;BME280;7737;51.578;7.268;2023-04-01T01:30:43;98800.44;;;9.97;100.00
15272;BME280;7737;51.578;7.268;2023-04-01T01:33:25;98799.84;;;9.94;100.00
15272;BME280;7737;51.578;7.268;2023-04-01T01:35:57;98795.38;;;9.94;100.00
15272;BME280;7737;51.578;7.268;2023-04-01T01:38:28;98807.56;;;9.97;100.00
15272;BME280;7737;51.578;7.268;2023-04-01T01:40:57;98804.06;;;9.96;100.00
15272;BME280;7737;51.578;7.268;2023-04-01T01:43:29;98809.38;;;9.96;100.00
15272;BME280;7737;51.578;7.268;2023-04-01T01:45:59;98802.38;;;9.95;100.00
15272;BME280;7737;51.578;7.268;2023-04-01T01:48:28;98805.16;;;9.94;100.00
15272;BME280;7737;51.578;7.268;2023-04-01T01:50:57;98805.28;;;9.92;100.00
15272;BME280;7737;51.578;7.268;2023-04-01T01:53:23;98804.53;;;9.90;100.00
15272;BME280;7737;51.578;7.268;2023-04-01T01:55:50;98803.56;;;9.91;100.00
15272;BME280;7737;51.578;7.268;2023-04-01T01:58:20;98801.88;;;9.90;100.00
15272;BME280;7737;51.578;7.268;2023-04-01T02:00:50;98800.31;;;9.88;100.00
15272;BME280;7737;51.578;7.268;2023-04-01T02:03:20;98801.16;;;9.88;100.00
15272;BME280;7737;51.578;7.268;2023-04-01T02:05:49;98800.91;;;9.91;100.00
15272;BME280;7737;51.578;7.268;2023-04-01T02:08:21;98800.19;;;9.89;100.00
15272;BME280;7737;51.578;7.268;2023-04-01T02:10:56;98804.28;;;9.93;100.00
15272;BME280;7737;51.578;7.268;2023-04-01T02:13:27;98792.00;;;9.92;100.00
15272;BME280;7737;51.578;7.268;2023-04-01T02:16:00;98795.59;;;9.91;100.00
15272;BME280;7737;51.578;7.268;2023-04-01T02:18:29;98798.50;;;9.88;100.00
15272;BME280;7737;51.578;7.268;2023-04-01T02:20:57;98792.25;;;9.89;100.00
15272;BME280;7737;51.578;7.268;2023-04-01T02:23:27;98795.59;;;9.91;100.00
15272;BME280;7737;51.578;7.268;2023-04-01T02:25:54;98801.78;;;9.92;100.00
15272;BME280;7737;51.578;7.268;2023-04-01T02:28:22;98797.53;;;9.89;100.00
15272;BME280;7737;51.578;7.268;2023-04-01T02:30:49;98791.63;;;9.86;100.00
15272;BME280;7737;51.578;7.268;2023-04-01T02:36:38;98793.56;;;9.84;100.00
15272;BME280;7737;51.578;7.268;2023-04-01T02:39:07;98796.34;;;9.82;100.00
15272;BME280;7737;51.578;7.268;2023-04-01T02:41:38;98803.31;;;9.83;100.00
15272;BME280;7737;51.578;7.268;2023-04-01T02:44:06;98801.38;;;9.85;100.00
15272;BME280;7737;51.578;7.268;2023-04-01T02:46:32;98806.81;;;9.84;100.00
15272;BME280;7737;51.578;7.268;2023-04-01T02:48:59;98804.16;;;9.84;100.00
15272;BME280;7737;51.578;7.268;2023-04-01T02:51:26;98805.88;;;9.85;100.00
15272;BME280;7737;51.578;7.268;2023-04-01T02:53:52;98799.94;;;9.81;100.00
15272;BME280;7737;51.578;7.268;2023-04-01T02:56:20;98810.31;;;9.84;100.00
15272;BME280;7737;51.578;7.268;2023-04-01T02:58:46;98805.25;;;9.81;100.00
15272;BME280;7737;51.578;7.268;2023-04-01T03:01:13;98810.44;;;9.82;100.00
15272;BME280;7737;51.578;7.268;2023-04-01T03:03:40;98818.38;;;9.82;100.00
15272;BME280;7737;51.578;7.268;2023-04-01T03:06:08;98812.25;;;9.82;100.00
15272;BME280;7737;51.578;7.268;2023-04-01T03:08:35;98818.53;;;9.81;100.00
15272;BME280;7737;51.578;7.268;2023-04-01T03:11:02;98813.22;;;9.81;100.00
15272;BME280;7737;51.578;7.268;2023-04-01T03:13:31;98818.75;;;9.78;100.00
15272;BME280;7737;51.578;7.268;2023-04-01T03:15:58;98815.25;;;9.77;100.00
15272;BME280;7737;51.578;7.268;2023-04-01T03:18:24;98811.66;;;9.78;100.00
15272;BME280;7737;51.578;7.268;2023-04-01T03:20:51;98823.09;;;9.79;100.00
15272;BME280;7737;51.578;7.268;2023-04-01T03:23:17;98816.09;;;9.78;100.00
15272;BME280;7737;51.578;7.268;2023-04-01T03:25:44;98824.06;;;9.78;100.00
15272;BME280;7737;51.578;7.268;2023-04-01T03:28:11;98820.69;;;9.76;100.00
15272;BME280;7737;51.578;7.268;2023-04-01T03:30:39;98830.31;;;9.77;100.00
15272;BME280;7737;51.578;7.268;2023-04-01T03:33:06;98831.78;;;9.81;100.00
15272;BME280;7737;51.578;7.268;2023-04-01T03:35:33;98828.66;;;9.76;100.00
15272;BME280;7737;51.578;7.268;2023-04-01T03:38:01;98829.50;;;9.76;100.00
15272;BME280;7737;51.578;7.268;2023-04-01T03:40:27;98830.31;;;9.77;100.00
15272;BME280;7737;51.578;7.268;2023-04-01T03:42:54;98841.91;;;9.76;100.00
15272;BME280;7737;51.578;7.268;2023-04-01T03:45:21;98844.56;;;9.76;100.00
15272;BME280;7737;51.578;7.268;2023-04-01T03:47:49;98836.69;;;9.74;100.00
15272;BME280;7737;51.578;7.268;2023-04-01T03:50:15;98839.13;;;9.77;100.00
15272;BME280;7737;51.578;7.268;2023-04-01T03:52:42;98835.03;;;9.73;100.00
15272;BME280;7737;51.578;7.268;2023-04-01T03:55:08;98837.06;;;9.70;100.00
15272;BME280;7737;51.578;7.268;2023-04-01T03:57:35;98834.91;;;9.75;100.00
15272;BME280;7737;51.578;7.268;2023-04-01T04:00:01;98839.47;;;9.73;100.00
15272;BME280;7737;51.578;7.268;2023-04-01T04:02:28;98840.22;;;9.75;100.00
15272;BME280;7737;51.578;7.268;2023-04-01T04:04:56;98839.47;;;9.73;100.00
15272;BME280;7737;51.578;7.268;2023-04-01T04:07:22;98844.78;;;9.73;100.00
15272;BME280;7737;51.578;7.268;2023-04-01T04:09:48;98846.50;;;9.74;100.00
15272;BME280;7737;51.578;7.268;2023-04-01T04:12:15;98844.66;;;9.74;100.00
15272;BME280;7737;51.578;7.268;2023-04-01T04:14:42;98837.56;;;9.75;100.00
15272;BME280;7737;51.578;7.268;2023-04-01T04:17:10;98846.22;;;9.77;100.00
15272;BME280;7737;51.578;7.268;2023-04-01T04:19:39;98849.88;;;9.76;100.00
15272;BME280;7737;51.578;7.268;2023-04-01T04:22:06;98851.44;;;9.78;100.00
15272;BME280;7737;51.578;7.268;2023-04-01T04:24:34;98849.41;;;9.82;100.00
15272;BME280;7737;51.578;7.268;2023-04-01T04:27:00;98850.38;;;9.81;100.00
15272;BME280;7737;51.578;7.268;2023-04-01T04:29:26;98853.50;;;9.86;100.00
15272;BME280;7737;51.578;7.268;2023-04-01T04:31:53;98851.94;;;9.84;100.00
15272;BME280;7737;51.578;7.268;2023-04-01T04:34:19;98858.31;;;9.81;100.00
15272;BME280;7737;51.578;7.268;2023-04-01T04:36:47;98863.50;;;9.82;100.00
15272;BME280;7737;51.578;7.268;2023-04-01T04:39:15;98864.47;;;9.82;100.00
15272;BME280;7737;51.578;7.268;2023-04-01T04:41:42;98863.84;;;9.78;100.00
15272;BME280;7737;51.578;7.268;2023-04-01T04:44:08;98864.56;;;9.80;100.00
15272;BME280;7737;51.578;7.268;2023-04-01T04:46:35;98867.22;;;9.80;100.00
15272;BME280;7737;51.578;7.268;2023-04-01T04:49:02;98872.53;;;9.80;100.00
15272;BME280;7737;51.578;7.268;2023-04-01T04:51:29;98869.16;;;9.78;100.00
15272;BME280;7737;51.578;7.268;2023-04-01T04:53:55;98877.00;;;9.79;100.00
15272;BME280;7737;51.578;7.268;2023-04-01T04:56:23;98874.47;;;9.78;100.00
15272;BME280;7737;51.578;7.268;2023-04-01T04:58:51;98884.84;;;9.81;100.00
15272;BME280;7737;51.578;7.268;2023-04-01T05:01:18;98877.84;;;9.80;100.00
15272;BME280;7737;51.578;7.268;2023-04-01T05:03:45;98886.78;;;9.79;100.00
15272;BME280;7737;51.578;7.268;2023-04-01T05:06:13;98880.28;;;9.83;100.00
15272;BME280;7737;51.578;7.268;2023-04-01T05:08:40;98889.22;;;9.82;100.00
15272;BME280;7737;51.578;7.268;2023-04-01T05:11:10;98882.94;;;9.83;100.00
15272;BME280;7737;51.578;7.268;2023-04-01T05:13:39;98894.25;;;9.85;100.00
15272;BME280;7737;51.578;7.268;2023-04-01T05:16:08;98889.94;;;9.84;100.00
15272;BME280;7737;51.578;7.268;2023-04-01T05:18:34;98891.59;;;9.85;100.00
15272;BME280;7737;51.578;7.268;2023-04-01T05:21:01;98893.53;;;9.83;100.00
15272;BME280;7737;51.578;7.268;2023-04-01T05:23:27;98896.91;;;9.85;100.00
15272;BME280;7737;51.578;7.268;2023-04-01T05:25:55;98899.25;;;9.90;100.00
15272;BME280;7737;51.578;7.268;2023-04-01T05:28:22;98891.38;;;9.88;100.00
15272;BME280;7737;51.578;7.268;2023-04-01T05:30:50;98895.84;;;9.88;100.00
15272;BME280;7737;51.578;7.268;2023-04-01T05:33:17;98902.00;;;9.88;100.00
15272;BME280;7737;51.578;7.268;2023-04-01T05:35:44;98899.47;;;9.87;100.00
15272;BME280;7737;51.578;7.268;2023-04-01T05:38:10;98906.44;;;9.88;100.00
15272;BME280;7737;51.578;7.268;2023-04-01T05:40:36;98909.97;;;9.88;100.00
15272;BME280;7737;51.578;7.268;2023-04-01T05:43:03;98907.78;;;9.93;100.00
15272;BME280;7737;51.578;7.268;2023-04-01T05:45:29;98910.44;;;9.93;100.00
15272;BME280;7737;51.578;7.268;2023-04-01T05:47:58;98918.19;;;9.96;100.00
15272;BME280;7737;51.578;7.268;2023-04-01T05:50:25;98912.88;;;9.96;100.00
15272;BME280;7737;51.578;7.268;2023-04-01T05:52:52;98917.00;;;10.00;100.00
15272;BME280;7737;51.578;7.268;2023-04-01T05:55:19;98920.59;;;9.99;100.00
15272;BME280;7737;51.578;7.268;2023-04-01T05:57:46;98919.16;;;9.95;100.00
15272;BME280;7737;51.578;7.268;2023-04-01T06:00:14;98917.94;;;9.99;100.00
15272;BME280;7737;51.578;7.268;2023-04-01T06:02:41;98925.91;;;9.99;100.00
15272;BME280;7737;51.578;7.268;2023-04-01T06:05:18;98928.81;;;9.96;100.00
15272;BME280;7737;51.578;7.268;2023-04-01T06:07:46;98927.00;;;9.97;100.00
15272;BME280;7737;51.578;7.268;2023-04-01T06:10:15;98931.09;;;10.01;100.00
15272;BME280;7737;51.578;7.268;2023-04-01T06:12:52;98926.63;;;10.01;100.00
15272;BME280;7737;51.578;7.268;2023-04-01T06:15:27;98927.41;;;10.03;100.00
15272;BME280;7737;51.578;7.268;2023-04-01T06:18:08;98934.84;;;9.98;100.00
15272;BME280;7737;51.578;7.268;2023-04-01T06:20:43;98932.81;;;10.02;100.00
15272;BME280;7737;51.578;7.268;2023-04-01T06:23:28;98939.59;;;10.06;100.00
15272;BME280;7737;51.578;7.268;2023-04-01T06:26:16;98939.69;;;10.04;100.00
15272;BME280;7737;51.578;7.268;2023-04-01T06:28:56;98932.34;;;10.08;100.00
15272;BME280;7737;51.578;7.268;2023-04-01T06:31:37;98943.06;;;10.06;100.00
15272;BME280;7737;51.578;7.268;2023-04-01T06:34:18;98939.81;;;10.03;100.00
15272;BME280;7737;51.578;7.268;2023-04-01T06:37:03;98950.06;;;10.07;100.00
15272;BME280;7737;51.578;7.268;2023-04-01T06:39:46;98948.38;;;10.06;100.00
15272;BME280;7737;51.578;7.268;2023-04-01T06:42:26;98948.50;;;10.05;100.00
15272;BME280;7737;51.578;7.268;2023-04-01T06:45:07;98951.78;;;10.08;100.00
15272;BME280;7737;51.578;7.268;2023-04-01T06:47:49;98951.28;;;10.03;100.00
15272;BME280;7737;51.578;7.268;2023-04-01T06:50:23;98960.06;;;10.04;100.00
15272;BME280;7737;51.578;7.268;2023-04-01T06:52:55;98961.78;;;10.05;100.00
15272;BME280;7737;51.578;7.268;2023-04-01T06:55:27;98969.38;;;10.09;100.00
15272;BME280;7737;51.578;7.268;2023-04-01T06:58:03;98962.41;;;10.08;100.00
15272;BME280;7737;51.578;7.268;2023-04-01T07:00:32;98967.56;;;10.10;100.00
15272;BME280;7737;51.578;7.268;2023-04-01T07:03:06;98967.56;;;10.10;100.00
15272;BME280;7737;51.578;7.268;2023-04-01T07:05:37;98978.31;;;10.08;100.00
15272;BME280;7737;51.578;7.268;2023-04-01T07:08:08;98968.44;;;10.10;100.00
15272;BME280;7737;51.578;7.268;2023-04-01T07:10:43;98966.63;;;10.11;100.00
15272;BME280;7737;51.578;7.268;2023-04-01T07:13:14;98972.16;;;10.08;100.00
15272;BME280;7737;51.578;7.268;2023-04-01T07:15:48;98974.81;;;10.08;100.00
15272;BME280;7737;51.578;7.268;2023-04-01T07:18:18;98974.91;;;10.06;100.00
15272;BME280;7737;51.578;7.268;2023-04-01T07:20:48;98976.84;;;10.04;100.00
15272;BME280;7737;51.578;7.268;2023-04-01T07:23:21;98980.84;;;10.10;100.00
15272;BME280;7737;51.578;7.268;2023-04-01T07:25:52;98984.72;;;10.06;100.00
15272;BME280;7737;51.578;7.268;2023-04-01T07:28:21;98988.09;;;10.08;100.00
15272;BME280;7737;51.578;7.268;2023-04-01T07:30:54;98994.13;;;10.10;100.00
15272;BME280;7737;51.578;7.268;2023-04-01T07:33:33;98992.13;;;10.13;100.00
15272;BME280;7737;51.578;7.268;2023-04-01T07:36:09;98991.16;;;10.14;100.00
15272;BME280;7737;51.578;7.268;2023-04-01T07:38:46;98984.66;;;10.18;100.00
15272;BME280;7737;51.578;7.268;2023-04-01T07:41:23;98994.78;;;10.13;100.00
15272;BME280;7737;51.578;7.268;2023-04-01T07:44:00;98992.13;;;10.13;100.00
15272;BME280;7737;51.578;7.268;2023-04-01T07:47:00;98996.97;;;10.19;100.00
15272;BME280;7737;51.578;7.268;2023-04-01T07:49:36;99004.59;;;10.24;100.00
15272;BME280;7737;51.578;7.268;2023-04-01T07:52:15;99007.13;;;10.25;100.00
15272;BME280;7737;51.578;7.268;2023-04-01T07:54:50;99010.13;;;10.21;100.00
15272;BME280;7737;51.578;7.268;2023-04-01T07:57:21;99012.44;;;10.25;100.00
15272;BME280;7737;51.578;7.268;2023-04-01T07:59:58;98987.34;;;10.29;100.00
15272;BME280;7737;51.578;7.268;2023-04-01T08:02:36;98989.78;;;10.32;100.00
15272;BME280;7737;51.578;7.268;2023-04-01T08:05:17;98985.19;;;10.34;100.00
15272;BME280;7737;51.578;7.268;2023-04-01T08:07:52;98989.78;;;10.44;100.00
15272;BME280;7737;51.578;7.268;2023-04-01T08:10:30;98990.00;;;10.40;100.00
15272;BME280;7737;51.578;7.268;2023-04-01T08:13:05;98987.94;;;10.33;100.00
15272;BME280;7737;51.578;7.268;2023-04-01T08:15:39;98998.84;;;10.41;100.00
15272;BME280;7737;51.578;7.268;2023-04-01T08:18:17;98995.59;;;10.37;100.00
15272;BME280;7737;51.578;7.268;2023-04-01T08:20:48;98995.59;;;10.37;100.00
15272;BME280;7737;51.578;7.268;2023-04-01T08:23:21;99000.03;;;10.37;100.00
15272;BME280;7737;51.578;7.268;2023-04-01T08:25:53;99010.31;;;10.42;100.00
15272;BME280;7737;51.578;7.268;2023-04-01T08:28:27;99012.47;;;10.36;100.00
15272;BME280;7737;51.578;7.268;2023-04-01T08:30:58;99012.25;;;10.39;100.00
15272;BME280;7737;51.578;7.268;2023-04-01T08:33:28;99011.16;;;10.42;100.00
15272;BME280;7737;51.578;7.268;2023-04-01T08:35:59;99019.00;;;10.44;100.00
15272;BME280;7737;51.578;7.268;2023-04-01T08:38:31;99015.41;;;10.45;100.00
15272;BME280;7737;51.578;7.268;2023-04-01T08:41:01;99016.84;;;10.37;100.00
15272;BME280;7737;51.578;7.268;2023-04-01T08:44:03;99019.00;;;10.44;100.00
15272;BME280;7737;51.578;7.268;2023-04-01T08:46:59;99020.00;;;10.43;100.00
15272;BME280;7737;51.578;7.268;2023-04-01T08:49:55;99022.69;;;10.54;100.00
15272;BME280;7737;51.578;7.268;2023-04-01T08:52:34;99028.22;;;10.51;100.00
15272;BME280;7737;51.578;7.268;2023-04-01T08:55:27;99036.28;;;10.49;100.00
15272;BME280;7737;51.578;7.268;2023-04-01T08:58:20;99029.91;;;10.52;100.00
15272;BME280;7737;51.578;7.268;2023-04-01T09:00:54;99030.88;;;10.51;100.00
15272;BME280;7737;51.578;7.268;2023-04-01T09:03:51;99048.41;;;10.53;100.00
15272;BME280;7737;51.578;7.268;2023-04-01T09:06:27;99048.72;;;10.37;100.00
15272;BME280;7737;51.578;7.268;2023-04-01T09:09:13;99049.94;;;10.45;100.00
15272;BME280;7737;51.578;7.268;2023-04-01T09:12:01;99049.94;;;10.45;100.00
15272;BME280;7737;51.578;7.268;2023-04-01T09:18:02;99056.94;;;10.46;100.00
15272;BME280;7737;51.578;7.268;2023-04-01T09:20:44;99056.69;;;10.49;100.00
15272;BME280;7737;51.578;7.268;2023-04-01T09:26:25;99064.34;;;10.53;100.00
15272;BME280;7737;51.578;7.268;2023-04-01T09:29:02;99067.94;;;10.52;100.00
15272;BME280;7737;51.578;7.268;2023-04-01T09:32:17;99071.53;;;10.51;100.00
15272;BME280;7737;51.578;7.268;2023-04-01T09:34:54;99071.44;;;10.53;100.00
15272;BME280;7737;51.578;7.268;2023-04-01T09:37:27;99081.22;;;10.52;100.00
15272;BME280;7737;51.578;7.268;2023-04-01T09:40:09;99080.28;;;10.53;100.00
15272;BME280;7737;51.578;7.268;2023-04-01T09:42:45;99081.94;;;10.54;100.00
15272;BME280;7737;51.578;7.268;2023-04-01T09:45:24;99085.22;;;10.58;100.00
15272;BME280;7737;51.578;7.268;2023-04-01T09:48:05;99090.66;;;10.56;100.00
15272;BME280;7737;51.578;7.268;2023-04-01T09:50:44;99090.41;;;10.59;100.00
15272;BME280;7737;51.578;7.268;2023-04-01T09:53:24;99090.19;;;10.62;100.00
15272;BME280;7737;51.578;7.268;2023-04-01T09:56:18;99093.97;;;10.71;100.00
15272;BME280;7737;51.578;7.268;2023-04-01T09:59:14;99099.91;;;10.74;100.00
15272;BME280;7737;51.578;7.268;2023-04-01T10:01:58;99093.72;;;10.74;100.00
15272;BME280;7737;51.578;7.268;2023-04-01T10:04:46;99107.03;;;10.74;100.00
15272;BME280;7737;51.578;7.268;2023-04-01T10:10:47;99112.47;;;10.83;100.00
15272;BME280;7737;51.578;7.268;2023-04-01T10:13:42;99118.78;;;10.82;100.00
15272;BME280;7737;51.578;7.268;2023-04-01T10:16:25;99129.53;;;10.92;100.00
15272;BME280;7737;51.578;7.268;2023-04-01T10:19:19;99120.75;;;11.02;100.00
15272;BME280;7737;51.578;7.268;2023-04-01T10:22:04;99125.69;;;10.96;100.00
15272;BME280;7737;51.578;7.268;2023-04-01T10:24:52;99121.38;;;11.06;100.00
15272;BME280;7737;51.578;7.268;2023-04-01T10:27:47;99131.25;;;11.04;100.00
15272;BME280;7737;51.578;7.268;2023-04-01T10:30:41;99133.06;;;10.92;100.00
15272;BME280;7737;51.578;7.268;2023-04-01T10:36:43;99132.00;;;11.06;100.00
15272;BME280;7737;51.578;7.268;2023-04-01T10:39:53;99132.22;;;11.03;100.00
15272;BME280;7737;51.578;7.268;2023-04-01T10:42:50;99132.47;;;11.00;100.00
15272;BME280;7737;51.578;7.268;2023-04-01T10:48:36;99140.19;;;10.92;100.00
15272;BME280;7737;51.578;7.268;2023-04-01T10:51:16;99136.78;;;10.90;100.00
15272;BME280;7737;51.578;7.268;2023-04-01T10:54:09;99134.50;;;10.96;100.00
15272;BME280;7737;51.578;7.268;2023-04-01T10:56:53;99139.50;;;11.01;100.00
15272;BME280;7737;51.578;7.268;2023-04-01T10:59:53;99154.25;;;11.16;100.00
15272;BME280;7737;51.578;7.268;2023-04-01T11:02:58;99147.16;;;11.28;100.00
15272;BME280;7737;51.578;7.268;2023-04-01T11:05:51;99153.78;;;11.22;100.00
15272;BME280;7737;51.578;7.268;2023-04-01T11:15:15;99160.19;;;11.20;100.00
15272;BME280;7737;51.578;7.268;2023-04-01T11:24:20;99169.38;;;11.16;100.00
15272;BME280;7737;51.578;7.268;2023-04-01T11:26:53;99170.31;;;11.15;100.00
15272;BME280;7737;51.578;7.268;2023-04-01T11:29:36;99183.00;;;11.11;100.00
15272;BME280;7737;51.578;7.268;2023-04-01T11:32:24;99182.44;;;11.19;100.00
15272;BME280;7737;51.578;7.268;2023-04-01T11:35:07;99181.47;;;11.20;100.00
15272;BME280;7737;51.578;7.268;2023-04-01T11:37:42;99178.81;;;11.20;100.00
15272;BME280;7737;51.578;7.268;2023-04-01T11:40:19;99183.88;;;11.12;100.00
15272;BME280;7737;51.578;7.268;2023-04-01T11:42:54;99189.28;;;11.10;100.00
15272;BME280;7737;51.578;7.268;2023-04-01T11:45:35;99191.44;;;11.05;100.00
15272;BME280;7737;51.578;7.268;2023-04-01T11:48:17;99194.88;;;11.18;100.00
15272;BME280;7737;51.578;7.268;2023-04-01T11:51:05;99202.84;;;11.18;100.00
15272;BME280;7737;51.578;7.268;2023-04-01T11:53:43;99200.22;;;11.29;100.00
15272;BME280;7737;51.578;7.268;2023-04-01T11:56:22;99204.09;;;11.36;100.00
15272;BME280;7737;51.578;7.268;2023-04-01T11:59:20;99205.53;;;11.29;100.00
15272;BME280;7737;51.578;7.268;2023-04-01T12:01:58;99208.56;;;11.36;100.00
15272;BME280;7737;51.578;7.268;2023-04-01T12:04:38;99211.97;;;11.38;100.00
15272;BME280;7737;51.578;7.268;2023-04-01T12:07:20;99209.19;;;11.39;100.00
15272;BME280;7737;51.578;7.268;2023-04-01T12:09:54;99215.22;;;11.30;100.00
15272;BME280;7737;51.578;7.268;2023-04-01T12:12:32;99220.06;;;11.36;100.00
15272;BME280;7737;51.578;7.268;2023-04-01T12:15:16;99222.47;;;11.28;100.00
15272;BME280;7737;51.578;7.268;2023-04-01T12:17:49;99236.50;;;11.30;100.00
15272;BME280;7737;51.578;7.268;2023-04-01T12:20:28;99230.22;;;11.31;100.00
15272;BME280;7737;51.578;7.268;2023-04-01T12:23:12;99231.88;;;11.21;100.00
15272;BME280;7737;51.578;7.268;2023-04-01T12:26:00;99231.88;;;11.21;100.00
15272;BME280;7737;51.578;7.268;2023-04-01T12:28:43;99231.03;;;11.21;100.00
15272;BME280;7737;51.578;7.268;2023-04-01T12:31:24;99242.50;;;11.21;100.00
15272;BME280;7737;51.578;7.268;2023-04-01T12:34:00;99241.22;;;11.27;100.00
15272;BME280;7737;51.578;7.268;2023-04-01T12:36:43;99246.16;;;11.31;100.00
15272;BME280;7737;51.578;7.268;2023-04-01T12:39:33;99244.81;;;11.26;100.00
15272;BME280;7737;51.578;7.268;2023-04-01T12:42:10;99251.22;;;11.23;100.00
15272;BME280;7737;51.578;7.268;2023-04-01T12:44:52;99254.50;;;11.27;100.00
15272;BME280;7737;51.578;7.268;2023-04-01T12:47:40;99245.91;;;11.23;100.00
15272;BME280;7737;51.578;7.268;2023-04-01T12:50:24;99254.88;;;11.22;100.00
15272;BME280;7737;51.578;7.268;2023-04-01T12:53:05;99257.63;;;11.21;100.00
15272;BME280;7737;51.578;7.268;2023-04-01T12:55:38;99258.25;;;11.24;100.00
15272;BME280;7737;51.578;7.268;2023-04-01T12:58:39;99262.41;;;11.39;100.00
15272;BME280;7737;51.578;7.268;2023-04-01T13:01:23;99273.03;;;11.39;100.00
15272;BME280;7737;51.578;7.268;2023-04-01T13:04:08;99270.28;;;11.41;100.00
15272;BME280;7737;51.578;7.268;2023-04-01T13:06:47;99284.91;;;11.46;100.00
15272;BME280;7737;51.578;7.268;2023-04-01T13:09:27;99286.50;;;11.49;100.00
15272;BME280;7737;51.578;7.268;2023-04-01T13:12:28;99287.25;;;11.51;100.00
15272;BME280;7737;51.578;7.268;2023-04-01T13:17:51;99291.09;;;11.47;100.00
15272;BME280;7737;51.578;7.268;2023-04-01T13:20:26;99294.94;;;11.43;100.00
15272;BME280;7737;51.578;7.268;2023-04-01T13:23:03;99296.03;;;11.40;100.00
15272;BME280;7737;51.578;7.268;2023-04-01T13:25:38;99295.53;;;11.35;100.00
15272;BME280;7737;51.578;7.268;2023-04-01T13:28:12;99299.81;;;11.49;100.00
15272;BME280;7737;51.578;7.268;2023-04-01T13:30:45;99293.88;;;11.45;100.00
15272;BME280;7737;51.578;7.268;2023-04-01T13:33:17;99309.84;;;11.45;100.00
15272;BME280;7737;51.578;7.268;2023-04-01T13:35:54;99302.84;;;11.55;100.00
15272;BME280;7737;51.578;7.268;2023-04-01T13:38:38;99311.69;;;11.56;100.00
15272;BME280;7737;51.578;7.268;2023-04-01T13:41:18;99312.31;;;11.36;100.00
15272;BME280;7737;51.578;7.268;2023-04-01T13:43:51;99311.50;;;11.46;100.00
15272;BME280;7737;51.578;7.268;2023-04-01T13:46:34;99318.31;;;11.50;100.00
15272;BME280;7737;51.578;7.268;2023-04-01T13:49:30;99315.16;;;11.45;100.00
15272;BME280;7737;51.578;7.268;2023-04-01T13:55:10;99314.94;;;11.48;100.00
15272;BME280;7737;51.578;7.268;2023-04-01T13:57:56;99316.97;;;11.45;100.00
15272;BME280;7737;51.578;7.268;2023-04-01T14:00:32;99325.81;;;11.45;100.00
15272;BME280;7737;51.578;7.268;2023-04-01T14:03:20;99332.06;;;11.44;100.00
15272;BME280;7737;51.578;7.268;2023-04-01T14:05:59;99332.66;;;11.37;100.00
15272;BME280;7737;51.578;7.268;2023-04-01T14:08:39;99337.13;;;11.36;100.00
15272;BME280;7737;51.578;7.268;2023-04-01T14:11:15;99341.94;;;11.31;100.00
15272;BME280;7737;51.578;7.268;2023-04-01T14:13:52;99343.41;;;11.35;100.00
15272;BME280;7737;51.578;7.268;2023-04-01T14:16:49;99349.06;;;11.31;100.00
15272;BME280;7737;51.578;7.268;2023-04-01T14:19:30;99355.97;;;11.33;100.00
15272;BME280;7737;51.578;7.268;2023-04-01T14:22:08;99353.56;;;11.30;100.00
15272;BME280;7737;51.578;7.268;2023-04-01T14:24:49;99351.63;;;11.32;100.00
15272;BME280;7737;51.578;7.268;2023-04-01T14:30:27;99367.41;;;11.23;100.00